createdAt,value
2018-04-11T00:00:41.507Z,1011.39
2018-04-11T00:01:41.527Z,1011.37
2018-04-11T00:02:41.553Z,1011.31
2018-04-11T00:03:41.576Z,1011.37
2018-04-11T00:04:41.592Z,1011.30
2018-04-11T00:05:41.616Z,1011.36
2018-04-11T00:06:41.635Z,1011.39
2018-04-11T00:07:41.658Z,1011.33
2018-04-11T00:08:41.674Z,1011.41
2018-04-11T00:09:41.705Z,1011.36
2018-04-11T00:10:41.726Z,1011.30
2018-04-11T00:11:41.742Z,1011.32
2018-04-11T00:12:41.762Z,1011.32
2018-04-11T00:13:41.782Z,1011.31
2018-04-11T00:14:41.802Z,1011.25
2018-04-11T00:15:41.824Z,1011.32
2018-04-11T00:16:41.851Z,1011.30
2018-04-11T00:17:41.878Z,1011.27
2018-04-11T00:18:41.892Z,1011.32
2018-04-11T00:19:41.915Z,1011.30
2018-04-11T00:20:41.940Z,1011.36
2018-04-11T00:21:41.955Z,1011.35
2018-04-11T00:22:42.013Z,1011.35
2018-04-11T00:23:42.000Z,1011.37
2018-04-11T00:24:42.020Z,1011.35
2018-04-11T00:25:42.042Z,1011.39
2018-04-11T00:26:42.062Z,1011.36
2018-04-11T00:27:42.081Z,1011.36
2018-04-11T00:28:42.110Z,1011.30
2018-04-11T00:29:42.124Z,1011.30
2018-04-11T00:30:42.148Z,1011.27
2018-04-11T00:31:42.171Z,1011.31
2018-04-11T00:32:42.190Z,1011.33
2018-04-11T00:33:42.207Z,1011.31
2018-04-11T00:34:42.229Z,1011.31
2018-04-11T00:35:42.255Z,1011.35
2018-04-11T00:36:42.269Z,1011.38
2018-04-11T00:37:42.292Z,1011.40
2018-04-11T00:38:42.315Z,1011.39
2018-04-11T00:39:42.329Z,1011.38
2018-04-11T00:40:42.351Z,1011.41
2018-04-11T00:41:42.383Z,1011.37
2018-04-11T00:42:42.399Z,1011.35
2018-04-11T00:43:42.421Z,1011.35
2018-04-11T00:44:42.440Z,1011.39
2018-04-11T00:45:42.463Z,1011.36
2018-04-11T00:46:42.483Z,1011.37
2018-04-11T00:47:42.502Z,1011.33
2018-04-11T00:48:42.523Z,1011.34
2018-04-11T00:49:42.550Z,1011.33
2018-04-11T00:50:42.564Z,1011.35
2018-04-11T00:51:42.592Z,1011.32
2018-04-11T00:52:42.608Z,1011.29
2018-04-11T00:53:42.633Z,1011.30
2018-04-11T00:54:42.648Z,1011.31
2018-04-11T00:55:42.677Z,1011.32
2018-04-11T00:56:42.692Z,1011.30
2018-04-11T00:57:42.715Z,1011.32
2018-04-11T00:58:42.736Z,1011.31
2018-04-11T00:59:42.752Z,1011.32
2018-04-11T01:00:42.785Z,1011.35
2018-04-11T01:01:42.796Z,1011.34
2018-04-11T01:02:42.820Z,1011.30
2018-04-11T01:03:42.843Z,1011.31
2018-04-11T01:04:42.862Z,1011.34
2018-04-11T01:05:42.905Z,1011.32
2018-04-11T01:06:42.901Z,1011.31
2018-04-11T01:07:42.934Z,1011.27
2018-04-11T01:08:42.949Z,1011.33
2018-04-11T01:09:42.965Z,1011.29
2018-04-11T01:10:42.985Z,1011.31
2018-04-11T01:11:43.004Z,1011.29
2018-04-11T01:12:43.029Z,1011.30
2018-04-11T01:13:43.059Z,1011.29
2018-04-11T01:14:43.069Z,1011.30
2018-04-11T01:15:43.109Z,1011.29
2018-04-11T01:16:43.114Z,1011.27
2018-04-11T01:17:43.135Z,1011.24
2018-04-11T01:18:43.154Z,1011.31
2018-04-11T01:19:43.178Z,1011.26
2018-04-11T01:20:43.198Z,1011.28
2018-04-11T01:21:43.219Z,1011.29
2018-04-11T01:22:43.245Z,1011.31
2018-04-11T01:23:43.267Z,1011.25
2018-04-11T01:24:43.285Z,1011.34
2018-04-11T01:25:43.305Z,1011.32
2018-04-11T01:26:43.327Z,1011.32
2018-04-11T01:27:43.344Z,1011.32
2018-04-11T01:28:43.375Z,1011.31
2018-04-11T01:29:43.389Z,1011.30
2018-04-11T01:30:43.485Z,1011.28
2018-04-11T01:31:43.430Z,1011.29
2018-04-11T01:32:43.456Z,1011.27
2018-04-11T01:33:43.472Z,1011.27
2018-04-11T01:34:43.495Z,1011.26
2018-04-11T01:35:43.514Z,1011.28
2018-04-11T01:36:43.535Z,1011.30
2018-04-11T01:37:43.564Z,1011.30
2018-04-11T01:38:43.584Z,1011.31
2018-04-11T01:39:43.596Z,1011.30
2018-04-11T01:40:43.622Z,1011.31
2018-04-11T01:41:43.637Z,1011.30
2018-04-11T01:42:43.666Z,1011.29
2018-04-11T01:43:43.681Z,1011.24
2018-04-11T01:44:43.705Z,1011.31
2018-04-11T01:45:43.722Z,1011.31
2018-04-11T01:46:43.743Z,1011.31
2018-04-11T01:47:43.766Z,1011.31
2018-04-11T01:48:43.789Z,1011.30
2018-04-11T01:49:43.812Z,1011.32
2018-04-11T01:50:43.849Z,1011.30
2018-04-11T01:51:43.853Z,1011.33
2018-04-11T01:52:43.890Z,1011.37
2018-04-11T01:53:43.893Z,1011.36
2018-04-11T01:54:43.912Z,1011.36
2018-04-11T01:55:43.936Z,1011.35
2018-04-11T01:56:43.957Z,1011.32
2018-04-11T01:57:43.981Z,1011.30
2018-04-11T01:58:44.002Z,1011.31
2018-04-11T01:59:44.022Z,1011.33
2018-04-11T02:00:44.046Z,1011.39
2018-04-11T02:01:44.064Z,1011.31
2018-04-11T02:02:44.087Z,1011.31
2018-04-11T02:03:44.111Z,1011.34
2018-04-11T02:04:44.128Z,1011.31
2018-04-11T02:05:44.153Z,1011.37
2018-04-11T02:06:44.177Z,1011.42
2018-04-11T02:07:44.199Z,1011.44
2018-04-11T02:08:44.212Z,1011.42
2018-04-11T02:09:44.302Z,1011.47
2018-04-11T02:10:44.258Z,1011.51
2018-04-11T02:11:44.277Z,1011.51
2018-04-11T02:12:44.301Z,1011.52
2018-04-11T02:13:44.320Z,1011.53
2018-04-11T02:14:44.336Z,1011.53
2018-04-11T02:15:44.357Z,1011.59
2018-04-11T02:16:44.385Z,1011.61
2018-04-11T02:17:44.402Z,1011.63
2018-04-11T02:18:44.431Z,1011.72
2018-04-11T02:19:44.445Z,1011.73
2018-04-11T02:20:44.463Z,1011.70
2018-04-11T02:21:44.486Z,1011.65
2018-04-11T02:22:44.506Z,1011.70
2018-04-11T02:23:44.527Z,1011.69
2018-04-11T02:24:44.551Z,1011.66
2018-04-11T02:25:44.574Z,1011.68
2018-04-11T02:26:44.591Z,1011.73
2018-04-11T02:27:44.610Z,1011.71
2018-04-11T02:28:44.631Z,1011.72
2018-04-11T02:29:44.660Z,1011.68
2018-04-11T02:30:44.675Z,1011.70
2018-04-11T02:31:44.698Z,1011.69
2018-04-11T02:32:44.719Z,1011.75
2018-04-11T02:33:44.742Z,1011.76
2018-04-11T02:34:44.760Z,1011.79
2018-04-11T02:35:44.776Z,1011.76
2018-04-11T02:36:44.803Z,1011.72
2018-04-11T02:37:44.828Z,1011.75
2018-04-11T02:38:44.842Z,1011.83
2018-04-11T02:39:44.864Z,1011.81
2018-04-11T02:40:44.888Z,1011.82
2018-04-11T02:41:44.901Z,1011.81
2018-04-11T02:42:44.926Z,1011.79
2018-04-11T02:43:44.945Z,1011.77
2018-04-11T02:44:44.997Z,1011.68
2018-04-11T02:45:45.009Z,1011.72
2018-04-11T02:46:45.011Z,1011.69
2018-04-11T02:47:45.039Z,1011.68
2018-04-11T02:48:45.048Z,1011.71
2018-04-11T02:49:45.111Z,1011.74
2018-04-11T02:50:45.093Z,1011.71
2018-04-11T02:51:45.121Z,1011.74
2018-04-11T02:52:45.133Z,1011.79
2018-04-11T02:53:45.156Z,1011.75
2018-04-11T02:54:45.173Z,1011.69
2018-04-11T02:55:45.192Z,1011.69
2018-04-11T02:56:45.219Z,1011.72
2018-04-11T02:57:45.238Z,1011.71
2018-04-11T02:58:45.263Z,1011.69
2018-04-11T02:59:45.287Z,1011.70
2018-04-11T03:00:45.299Z,1011.72
2018-04-11T03:01:45.323Z,1011.66
2018-04-11T03:02:45.344Z,1011.65
2018-04-11T03:03:45.372Z,1011.66
2018-04-11T03:04:45.389Z,1011.60
2018-04-11T03:05:45.409Z,1011.55
2018-04-11T03:06:45.428Z,1011.54
2018-04-11T03:07:45.449Z,1011.56
2018-04-11T03:08:45.473Z,1011.64
2018-04-11T03:09:45.497Z,1011.71
2018-04-11T03:10:45.513Z,1011.78
2018-04-11T03:11:45.536Z,1011.70
2018-04-11T03:12:45.553Z,1011.75
2018-04-11T03:13:45.580Z,1011.75
2018-04-11T03:14:45.600Z,1011.68
2018-04-11T03:15:45.632Z,1011.76
2018-04-11T03:16:45.642Z,1011.75
2018-04-11T03:17:45.664Z,1011.75
2018-04-11T03:18:45.689Z,1011.89
2018-04-11T03:19:45.704Z,1011.79
2018-04-11T03:20:45.731Z,1011.74
2018-04-11T03:21:45.750Z,1011.77
2018-04-11T03:22:45.768Z,1011.64
2018-04-11T03:23:45.789Z,1011.65
2018-04-11T03:24:45.810Z,1011.62
2018-04-11T03:25:45.832Z,1011.72
2018-04-11T03:26:45.851Z,1011.73
2018-04-11T03:27:45.872Z,1011.79
2018-04-11T03:28:45.896Z,1011.90
2018-04-11T03:29:45.912Z,1011.93
2018-04-11T03:30:45.938Z,1011.92
2018-04-11T03:31:45.958Z,1011.88
2018-04-11T03:32:45.982Z,1011.87
2018-04-11T03:33:46.000Z,1011.83
2018-04-11T03:34:46.020Z,1011.79
2018-04-11T03:35:46.036Z,1011.81
2018-04-11T03:36:46.068Z,1011.75
2018-04-11T03:37:46.081Z,1011.75
2018-04-11T03:38:46.097Z,1011.73
2018-04-11T03:39:46.124Z,1011.77
2018-04-11T03:40:46.141Z,1011.76
2018-04-11T03:41:46.161Z,1011.78
2018-04-11T03:42:46.189Z,1011.80
2018-04-11T03:43:46.206Z,1011.78
2018-04-11T03:44:46.226Z,1011.81
2018-04-11T03:45:46.245Z,1011.84
2018-04-11T03:46:46.265Z,1011.90
2018-04-11T03:47:46.286Z,1011.83
2018-04-11T03:48:46.306Z,1011.82
2018-04-11T03:49:46.332Z,1011.76
2018-04-11T03:50:46.346Z,1011.76
2018-04-11T03:51:46.367Z,1011.78
2018-04-11T03:52:46.386Z,1011.81
2018-04-11T03:53:46.409Z,1011.77
2018-04-11T03:54:46.484Z,1011.72
2018-04-11T03:55:46.451Z,1011.69
2018-04-11T03:56:46.478Z,1011.68
2018-04-11T03:57:46.494Z,1011.69
2018-04-11T03:58:46.512Z,1011.73
2018-04-11T03:59:46.533Z,1011.75
2018-04-11T04:00:46.559Z,1011.76
2018-04-11T04:01:46.579Z,1011.76
2018-04-11T04:02:46.595Z,1011.81
2018-04-11T04:03:46.619Z,1011.78
2018-04-11T04:04:46.639Z,1011.77
2018-04-11T04:05:46.658Z,1011.74
2018-04-11T04:06:46.697Z,1011.75
2018-04-11T04:07:46.700Z,1011.75
2018-04-11T04:08:46.720Z,1011.69
2018-04-11T04:09:46.743Z,1011.70
2018-04-11T04:10:46.764Z,1011.71
2018-04-11T04:11:46.781Z,1011.73
2018-04-11T04:12:46.801Z,1011.71
2018-04-11T04:13:46.833Z,1011.75
2018-04-11T04:14:46.846Z,1011.71
2018-04-11T04:15:46.867Z,1011.72
2018-04-11T04:16:46.888Z,1011.70
2018-04-11T04:17:46.909Z,1011.69
2018-04-11T04:18:46.923Z,1011.61
2018-04-11T04:19:46.960Z,1011.63
2018-04-11T04:20:46.968Z,1011.66
2018-04-11T04:21:46.989Z,1011.70
2018-04-11T04:22:47.012Z,1011.79
2018-04-11T04:23:47.029Z,1011.78
2018-04-11T04:24:47.049Z,1011.79
2018-04-11T04:25:47.074Z,1011.81
2018-04-11T04:26:47.093Z,1011.88
2018-04-11T04:27:47.119Z,1011.89
2018-04-11T04:28:47.133Z,1011.90
2018-04-11T04:29:47.154Z,1011.88
2018-04-11T04:30:47.172Z,1011.90
2018-04-11T04:31:47.200Z,1011.92
2018-04-11T04:32:47.220Z,1011.93
2018-04-11T04:33:47.237Z,1011.95
2018-04-11T04:34:47.258Z,1011.92
2018-04-11T04:35:47.280Z,1011.93
2018-04-11T04:36:47.297Z,1011.92
2018-04-11T04:37:47.318Z,1011.97
2018-04-11T04:38:47.342Z,1011.91
2018-04-11T04:39:47.365Z,1011.93
2018-04-11T04:40:47.388Z,1011.93
2018-04-11T04:41:47.400Z,1011.98
2018-04-11T04:42:47.423Z,1011.99
2018-04-11T04:43:47.448Z,1011.96
2018-04-11T04:44:47.466Z,1011.92
2018-04-11T04:45:47.490Z,1011.94
2018-04-11T04:46:47.509Z,1012.00
2018-04-11T04:47:47.529Z,1011.98
2018-04-11T04:48:47.548Z,1011.99
2018-04-11T04:49:47.571Z,1012.05
2018-04-11T04:50:47.594Z,1012.06
2018-04-11T04:51:47.614Z,1012.03
2018-04-11T04:52:47.630Z,1012.03
2018-04-11T04:53:47.660Z,1012.07
2018-04-11T04:54:47.680Z,1012.07
2018-04-11T04:55:47.696Z,1012.08
2018-04-11T04:56:47.715Z,1012.10
2018-04-11T04:57:47.739Z,1012.09
2018-04-11T04:58:47.755Z,1012.06
2018-04-11T04:59:47.780Z,1012.01
2018-04-11T05:00:47.801Z,1012.06
2018-04-11T05:01:47.820Z,1012.04
2018-04-11T05:02:47.840Z,1012.06
2018-04-11T05:03:47.860Z,1012.00
2018-04-11T05:04:47.884Z,1012.00
2018-04-11T05:05:47.901Z,1012.00
2018-04-11T05:06:47.925Z,1012.03
2018-04-11T05:07:47.945Z,1012.03
2018-04-11T05:08:47.969Z,1012.00
2018-04-11T05:09:47.987Z,1012.05
2018-04-11T05:10:48.018Z,1012.05
2018-04-11T05:11:48.029Z,1012.07
2018-04-11T05:12:48.052Z,1012.06
2018-04-11T05:13:48.077Z,1012.13
2018-04-11T05:14:48.092Z,1012.17
2018-04-11T05:15:48.111Z,1012.15
2018-04-11T05:16:48.135Z,1012.15
2018-04-11T05:17:48.151Z,1012.15
2018-04-11T05:18:48.175Z,1012.20
2018-04-11T05:19:48.200Z,1012.18
2018-04-11T05:20:48.220Z,1012.22
2018-04-11T05:21:48.247Z,1012.19
2018-04-11T05:22:48.261Z,1012.25
2018-04-11T05:23:48.280Z,1012.24
2018-04-11T05:24:48.300Z,1012.23
2018-04-11T05:25:48.326Z,1012.28
2018-04-11T05:26:48.342Z,1012.31
2018-04-11T05:27:48.364Z,1012.32
2018-04-11T05:28:48.386Z,1012.30
2018-04-11T05:29:48.408Z,1012.18
2018-04-11T05:30:48.436Z,1012.28
2018-04-11T05:31:48.450Z,1012.24
2018-04-11T05:32:48.473Z,1012.29
2018-04-11T05:33:48.491Z,1012.33
2018-04-11T05:34:48.513Z,1012.34
2018-04-11T05:35:48.532Z,1012.31
2018-04-11T05:36:48.553Z,1012.33
2018-04-11T05:37:48.581Z,1012.38
2018-04-11T05:38:48.592Z,1012.40
2018-04-11T05:39:48.618Z,1012.44
2018-04-11T05:40:48.641Z,1012.52
2018-04-11T05:41:48.654Z,1012.48
2018-04-11T05:42:48.677Z,1012.50
2018-04-11T05:43:48.698Z,1012.51
2018-04-11T05:44:48.722Z,1012.57
2018-04-11T05:45:48.742Z,1012.56
2018-04-11T05:46:48.761Z,1012.57
2018-04-11T05:47:48.783Z,1012.61
2018-04-11T05:48:48.810Z,1012.64
2018-04-11T05:49:48.831Z,1012.69
2018-04-11T05:50:48.845Z,1012.77
2018-04-11T05:51:48.868Z,1012.72
2018-04-11T05:52:48.889Z,1012.76
2018-04-11T05:53:48.913Z,1012.72
2018-04-11T05:54:48.933Z,1012.70
2018-04-11T05:55:48.966Z,1012.73
2018-04-11T05:56:48.975Z,1012.71
2018-04-11T05:57:48.998Z,1012.72
2018-04-11T05:58:49.023Z,1012.75
2018-04-11T05:59:49.039Z,1012.70
2018-04-11T06:00:49.061Z,1012.75
2018-04-11T06:01:49.085Z,1012.77
2018-04-11T06:02:49.110Z,1012.79
2018-04-11T06:03:49.125Z,1012.80
2018-04-11T06:04:49.149Z,1012.81
2018-04-11T06:05:49.174Z,1012.77
2018-04-11T06:06:49.188Z,1012.84
2018-04-11T06:07:49.206Z,1012.87
2018-04-11T06:08:49.230Z,1012.89
2018-04-11T06:09:49.250Z,1012.84
2018-04-11T06:10:49.271Z,1012.92
2018-04-11T06:11:49.295Z,1012.92
2018-04-11T06:12:49.319Z,1012.93
2018-04-11T06:13:49.337Z,1012.87
2018-04-11T06:14:49.360Z,1012.91
2018-04-11T06:15:49.376Z,1012.90
2018-04-11T06:16:49.399Z,1012.96
2018-04-11T06:17:49.430Z,1012.91
2018-04-11T06:18:49.444Z,1012.92
2018-04-11T06:19:49.466Z,1012.93
2018-04-11T06:20:49.484Z,1012.92
2018-04-11T06:21:49.508Z,1012.99
2018-04-11T06:22:49.585Z,1012.94
2018-04-11T06:23:49.553Z,1012.97
2018-04-11T06:24:49.575Z,1013.02
2018-04-11T06:25:49.600Z,1013.00
2018-04-11T06:26:49.621Z,1013.01
2018-04-11T06:27:49.636Z,1012.99
2018-04-11T06:28:49.658Z,1013.02
2018-04-11T06:29:49.693Z,1013.07
2018-04-11T06:30:49.698Z,1013.02
2018-04-11T06:31:49.727Z,1013.04
2018-04-11T06:32:49.753Z,1013.06
2018-04-11T06:33:49.815Z,1013.01
2018-04-11T06:34:49.789Z,1012.98
2018-04-11T06:35:49.805Z,1013.00
2018-04-11T06:36:49.839Z,1013.02
2018-04-11T06:37:49.857Z,1013.04
2018-04-11T06:38:49.871Z,1013.05
2018-04-11T06:39:49.891Z,1013.09
2018-04-11T06:40:49.917Z,1013.08
2018-04-11T06:41:49.935Z,1013.06
2018-04-11T06:42:49.958Z,1013.13
2018-04-11T06:43:49.977Z,1013.14
2018-04-11T06:44:50.007Z,1013.09
2018-04-11T06:45:50.023Z,1013.06
2018-04-11T06:46:50.043Z,1013.10
2018-04-11T06:47:50.068Z,1013.17
2018-04-11T06:48:50.093Z,1013.17
2018-04-11T06:49:50.116Z,1013.11
2018-04-11T06:50:50.134Z,1013.07
2018-04-11T06:51:50.152Z,1013.08
2018-04-11T06:52:50.173Z,1013.14
2018-04-11T06:53:50.200Z,1013.08
2018-04-11T06:54:50.221Z,1013.10
2018-04-11T06:55:50.244Z,1013.15
2018-04-11T06:56:50.275Z,1013.12
2018-04-11T06:57:50.283Z,1013.19
2018-04-11T06:58:50.311Z,1013.22
2018-04-11T06:59:50.328Z,1013.15
2018-04-11T07:00:50.347Z,1013.09
2018-04-11T07:01:50.376Z,1013.09
2018-04-11T07:02:50.392Z,1013.21
2018-04-11T07:03:50.413Z,1013.18
2018-04-11T07:04:50.438Z,1013.12
2018-04-11T07:05:50.459Z,1013.16
2018-04-11T07:06:50.483Z,1013.22
2018-04-11T07:07:50.501Z,1013.24
2018-04-11T07:08:50.539Z,1013.29
2018-04-11T07:09:50.545Z,1013.24
2018-04-11T07:10:50.569Z,1013.30
2018-04-11T07:11:50.591Z,1013.31
2018-04-11T07:12:50.623Z,1013.27
2018-04-11T07:13:50.633Z,1013.32
2018-04-11T07:14:50.658Z,1013.32
2018-04-11T07:15:50.678Z,1013.38
2018-04-11T07:16:50.702Z,1013.36
2018-04-11T07:17:50.727Z,1013.37
2018-04-11T07:18:50.741Z,1013.40
2018-04-11T07:19:50.777Z,1013.42
2018-04-11T07:20:50.795Z,1013.40
2018-04-11T07:21:50.813Z,1013.41
2018-04-11T07:22:50.843Z,1013.37
2018-04-11T07:23:50.855Z,1013.41
2018-04-11T07:24:50.873Z,1013.42
2018-04-11T07:25:50.936Z,1013.42
2018-04-11T07:26:50.923Z,1013.48
2018-04-11T07:27:50.945Z,1013.37
2018-04-11T07:28:50.964Z,1013.39
2018-04-11T07:29:50.986Z,1013.41
2018-04-11T07:30:51.007Z,1013.43
2018-04-11T07:31:51.031Z,1013.40
2018-04-11T07:32:51.055Z,1013.43
2018-04-11T07:33:51.122Z,1013.41
2018-04-11T07:34:51.094Z,1013.48
2018-04-11T07:35:51.117Z,1013.44
2018-04-11T07:36:51.140Z,1013.40
2018-04-11T07:37:51.168Z,1013.48
2018-04-11T07:38:51.188Z,1013.42
2018-04-11T07:39:51.211Z,1013.52
2018-04-11T07:40:51.230Z,1013.49
2018-04-11T07:41:51.253Z,1013.52
2018-04-11T07:42:51.271Z,1013.52
2018-04-11T07:43:51.294Z,1013.53
2018-04-11T07:44:51.322Z,1013.58
2018-04-11T07:45:51.343Z,1013.59
2018-04-11T07:46:51.362Z,1013.57
2018-04-11T07:47:51.388Z,1013.61
2018-04-11T07:48:51.411Z,1013.59
2018-04-11T07:49:51.433Z,1013.63
2018-04-11T07:50:51.448Z,1013.60
2018-04-11T07:51:51.473Z,1013.62
2018-04-11T07:52:51.495Z,1013.59
2018-04-11T07:53:51.518Z,1013.67
2018-04-11T07:54:51.540Z,1013.59
2018-04-11T07:55:51.560Z,1013.62
2018-04-11T07:56:51.588Z,1013.58
2018-04-11T07:57:51.611Z,1013.60
2018-04-11T07:58:51.627Z,1013.51
2018-04-11T07:59:51.663Z,1013.47
2018-04-11T08:00:51.684Z,1013.51
2018-04-11T08:01:51.698Z,1013.58
2018-04-11T08:02:51.717Z,1013.55
2018-04-11T08:03:51.746Z,1013.52
2018-04-11T08:04:51.769Z,1013.57
2018-04-11T08:05:51.789Z,1013.65
2018-04-11T08:06:51.808Z,1013.52
2018-04-11T08:07:51.836Z,1013.59
2018-04-11T08:08:51.856Z,1013.66
2018-04-11T08:09:51.878Z,1013.64
2018-04-11T08:10:51.897Z,1013.77
2018-04-11T08:11:51.924Z,1013.85
2018-04-11T08:12:51.952Z,1013.67
2018-04-11T08:13:51.968Z,1013.70
2018-04-11T08:14:51.997Z,1013.79
2018-04-11T08:15:52.016Z,1013.86
2018-04-11T08:16:52.039Z,1013.88
2018-04-11T08:17:52.064Z,1013.77
2018-04-11T08:18:52.087Z,1013.81
2018-04-11T08:19:52.113Z,1013.84
2018-04-11T08:20:52.131Z,1013.81
2018-04-11T08:21:52.152Z,1013.81
2018-04-11T08:22:52.172Z,1013.80
2018-04-11T08:23:52.200Z,1013.86
2018-04-11T08:24:52.226Z,1013.89
2018-04-11T08:25:52.241Z,1013.83
2018-04-11T08:26:52.271Z,1013.85
2018-04-11T08:27:52.287Z,1013.89
2018-04-11T08:28:52.321Z,1013.93
2018-04-11T08:29:52.396Z,1013.92
2018-04-11T08:30:52.375Z,1013.86
2018-04-11T08:31:52.381Z,1013.86
2018-04-11T08:32:52.406Z,1013.90
2018-04-11T08:33:52.438Z,1013.83
2018-04-11T08:34:52.461Z,1013.84
2018-04-11T08:35:52.476Z,1013.84
2018-04-11T08:36:52.503Z,1013.88
2018-04-11T08:37:52.526Z,1013.86
2018-04-11T08:38:52.558Z,1013.92
2018-04-11T08:39:52.571Z,1013.90
2018-04-11T08:40:52.595Z,1013.93
2018-04-11T08:41:52.618Z,1013.90
2018-04-11T08:42:52.641Z,1013.96
2018-04-11T08:43:52.671Z,1013.97
2018-04-11T08:44:52.693Z,1013.94
2018-04-11T08:45:52.714Z,1014.00
2018-04-11T08:46:52.740Z,1014.07
2018-04-11T08:47:52.761Z,1013.87
2018-04-11T08:48:52.794Z,1014.06
2018-04-11T08:49:52.822Z,1014.08
2018-04-11T08:50:52.831Z,1014.18
2018-04-11T08:51:52.856Z,1013.90
2018-04-11T08:52:52.881Z,1013.99
2018-04-11T08:53:52.906Z,1014.04
2018-04-11T08:54:52.929Z,1014.02
2018-04-11T08:55:52.956Z,1014.14
2018-04-11T08:56:52.979Z,1014.08
2018-04-11T08:57:53.008Z,1014.15
2018-04-11T08:58:53.031Z,1014.08
2018-04-11T08:59:53.056Z,1014.05
2018-04-11T09:00:53.082Z,1013.98
2018-04-11T09:01:53.103Z,1013.88
2018-04-11T09:02:53.121Z,1013.84
2018-04-11T09:03:53.152Z,1013.83
2018-04-11T09:04:53.175Z,1013.87
2018-04-11T09:05:53.196Z,1014.03
2018-04-11T09:06:53.223Z,1014.21
2018-04-11T09:07:53.249Z,1014.03
2018-04-11T09:08:53.271Z,1013.99
2018-04-11T09:09:53.296Z,1014.10
2018-04-11T09:10:53.321Z,1014.15
2018-04-11T09:11:53.340Z,1014.01
2018-04-11T09:12:53.365Z,1014.02
2018-04-11T09:13:53.391Z,1013.98
2018-04-11T09:14:53.415Z,1014.04
2018-04-11T09:15:53.447Z,1014.13
2018-04-11T09:16:53.465Z,1013.99
2018-04-11T09:17:53.489Z,1014.06
2018-04-11T09:18:53.515Z,1013.98
2018-04-11T09:19:53.538Z,1013.99
2018-04-11T09:20:53.565Z,1014.01
2018-04-11T09:21:53.594Z,1014.06
2018-04-11T09:22:53.611Z,1014.19
2018-04-11T09:23:53.642Z,1014.05
2018-04-11T09:24:53.667Z,1014.08
2018-04-11T09:25:53.696Z,1014.04
2018-04-11T09:26:53.714Z,1014.18
2018-04-11T09:27:53.743Z,1014.13
2018-04-11T09:28:53.762Z,1014.09
2018-04-11T09:29:53.794Z,1014.12
2018-04-11T09:30:53.813Z,1014.11
2018-04-11T09:31:53.905Z,1014.11
2018-04-11T09:32:53.867Z,1014.07
2018-04-11T09:33:53.890Z,1014.05
2018-04-11T09:34:53.916Z,1014.06
2018-04-11T09:35:53.938Z,1014.11
2018-04-11T09:36:53.964Z,1014.04
2018-04-11T09:37:53.986Z,1014.07
2018-04-11T09:38:54.007Z,1014.05
2018-04-11T09:39:54.033Z,1013.96
2018-04-11T09:40:54.059Z,1013.94
2018-04-11T09:41:54.104Z,1013.95
2018-04-11T09:42:54.163Z,1014.10
2018-04-11T09:43:54.134Z,1014.01
2018-04-11T09:44:54.167Z,1014.17
2018-04-11T09:45:54.187Z,1014.19
2018-04-11T09:46:54.208Z,1014.19
2018-04-11T09:47:54.238Z,1014.20
2018-04-11T09:48:54.257Z,1014.31
2018-04-11T09:49:54.284Z,1014.34
2018-04-11T09:50:54.308Z,1014.26
2018-04-11T09:51:54.353Z,1014.19
2018-04-11T09:52:54.359Z,1014.18
2018-04-11T09:53:54.384Z,1014.11
2018-04-11T09:54:54.412Z,1014.04
2018-04-11T09:55:54.452Z,1014.03
2018-04-11T09:56:54.462Z,1014.03
2018-04-11T09:57:54.488Z,1013.97
2018-04-11T09:58:54.512Z,1013.94
2018-04-11T09:59:54.542Z,1013.95
2018-04-11T10:00:54.564Z,1013.97
2018-04-11T10:01:54.588Z,1013.96
2018-04-11T10:02:54.629Z,1013.92
2018-04-11T10:03:54.641Z,1013.92
2018-04-11T10:04:54.669Z,1014.06
2018-04-11T10:05:54.697Z,1014.30
2018-04-11T10:06:54.734Z,1014.27
2018-04-11T10:07:54.748Z,1014.18
2018-04-11T10:08:54.771Z,1014.20
2018-04-11T10:09:54.795Z,1014.24
2018-04-11T10:10:54.818Z,1014.22
2018-04-11T10:11:54.842Z,1014.26
2018-04-11T10:12:54.871Z,1014.28
2018-04-11T10:13:54.897Z,1014.18
2018-04-11T10:14:54.921Z,1014.22
2018-04-11T10:15:54.947Z,1014.29
2018-04-11T10:16:54.973Z,1014.22
2018-04-11T10:17:55.004Z,1014.35
2018-04-11T10:18:55.033Z,1014.33
2018-04-11T10:19:55.051Z,1014.34
2018-04-11T10:20:55.076Z,1014.33
2018-04-11T10:21:55.105Z,1014.03
2018-04-11T10:22:55.127Z,1013.95
2018-04-11T10:23:55.152Z,1013.95
2018-04-11T10:24:55.211Z,1013.97
2018-04-11T10:25:55.217Z,1013.94
2018-04-11T10:26:55.247Z,1013.92
2018-04-11T10:27:55.267Z,1014.05
2018-04-11T10:28:55.286Z,1014.06
2018-04-11T10:29:55.312Z,1014.12
2018-04-11T10:30:55.344Z,1014.22
2018-04-11T10:31:55.381Z,1014.03
2018-04-11T10:32:55.392Z,1013.98
2018-04-11T10:33:55.417Z,1013.93
2018-04-11T10:34:55.444Z,1013.97
2018-04-11T10:35:55.469Z,1013.87
2018-04-11T10:36:55.503Z,1013.80
2018-04-11T10:37:55.524Z,1013.86
2018-04-11T10:38:55.552Z,1014.05
2018-04-11T10:39:55.572Z,1014.13
2018-04-11T10:40:55.597Z,1014.01
2018-04-11T10:41:55.619Z,1013.79
2018-04-11T10:42:55.653Z,1013.87
2018-04-11T10:43:55.680Z,1014.09
2018-04-11T10:44:55.704Z,1014.20
2018-04-11T10:45:55.735Z,1014.27
2018-04-11T10:46:55.759Z,1014.38
2018-04-11T10:47:55.785Z,1014.37
2018-04-11T10:48:55.808Z,1014.29
2018-04-11T10:49:55.835Z,1014.30
2018-04-11T10:50:55.861Z,1014.29
2018-04-11T10:51:55.893Z,1014.20
2018-04-11T10:52:55.911Z,1014.35
2018-04-11T10:53:55.936Z,1014.22
2018-04-11T10:54:55.989Z,1014.16
2018-04-11T10:55:55.995Z,1014.23
2018-04-11T10:56:56.025Z,1014.08
2018-04-11T10:57:56.044Z,1013.92
2018-04-11T10:58:56.083Z,1014.00
2018-04-11T10:59:56.106Z,1014.15
2018-04-11T11:00:56.128Z,1014.07
2018-04-11T11:01:56.154Z,1014.15
2018-04-11T11:02:56.183Z,1013.99
2018-04-11T11:03:56.220Z,1013.92
2018-04-11T11:04:56.238Z,1013.94
2018-04-11T11:05:56.263Z,1014.02
2018-04-11T11:06:56.289Z,1013.91
2018-04-11T11:07:56.318Z,1013.99
2018-04-11T11:08:56.345Z,1014.07
2018-04-11T11:09:56.368Z,1014.07
2018-04-11T11:10:56.407Z,1013.99
2018-04-11T11:11:56.425Z,1014.03
2018-04-11T11:12:56.453Z,1013.93
2018-04-11T11:13:56.480Z,1014.10
2018-04-11T11:14:56.508Z,1014.31
2018-04-11T11:15:56.536Z,1014.21
2018-04-11T11:16:56.565Z,1014.24
2018-04-11T11:17:56.594Z,1014.30
2018-04-11T11:18:56.619Z,1014.49
2018-04-11T11:19:56.651Z,1014.32
2018-04-11T11:20:56.675Z,1014.36
2018-04-11T11:21:56.709Z,1014.52
2018-04-11T11:22:56.740Z,1014.09
2018-04-11T11:23:56.763Z,1014.51
2018-04-11T11:24:56.814Z,1014.60
2018-04-11T11:25:56.822Z,1014.61
2018-04-11T11:26:56.865Z,1014.52
2018-04-11T11:27:56.877Z,1014.58
2018-04-11T11:28:56.910Z,1014.64
2018-04-11T11:29:56.933Z,1014.74
2018-04-11T11:30:56.961Z,1014.70
2018-04-11T11:31:56.992Z,1014.87
2018-04-11T11:32:57.028Z,1014.95
2018-04-11T11:33:57.066Z,1014.88
2018-04-11T11:34:57.083Z,1015.26
2018-04-11T11:35:57.115Z,1015.57
2018-04-11T11:36:57.147Z,1015.74
2018-04-11T11:37:57.178Z,1016.00
2018-04-11T11:38:57.213Z,1016.18
2018-04-11T11:39:57.241Z,1016.51
2018-04-11T11:40:57.282Z,1016.80
2018-04-11T11:41:57.303Z,1016.46
2018-04-11T11:42:57.336Z,1015.22
2018-04-11T11:43:57.362Z,1014.23
2018-04-11T11:44:57.398Z,1014.43
2018-04-11T11:45:57.437Z,1014.49
2018-04-11T11:46:57.459Z,1019.55
2018-04-11T11:47:57.496Z,1019.10
2018-04-11T11:48:57.526Z,1017.86
2018-04-11T11:49:57.557Z,1021.29
2018-04-11T11:50:57.588Z,1021.67
2018-04-11T11:51:57.620Z,1018.78
2018-04-11T11:52:57.649Z,1014.02
2018-04-11T11:53:57.683Z,1018.78
2018-04-11T11:54:57.707Z,1015.05
2018-04-11T11:55:57.745Z,1015.03
2018-04-11T11:56:57.781Z,1014.09
2018-04-11T11:57:57.806Z,1013.83
2018-04-11T11:58:57.835Z,1013.80
2018-04-11T11:59:57.867Z,1013.74
2018-04-11T12:00:57.899Z,1013.73
2018-04-11T12:01:57.928Z,1013.78
2018-04-11T12:02:57.957Z,1014.13
2018-04-11T12:03:57.990Z,1013.75
2018-04-11T12:04:58.029Z,1013.57
2018-04-11T12:05:58.051Z,1014.13